KEWK/EWK METAR and TAF weather

Enter ICAO airport designator
Station Type Date Time Source
KEWK METAR 2021/02/25 15:56 UTC NOAA

KEWK 251556Z AUTO 07005KT 10SM OVC110 02/M03 A3043 RMK AO2 SLP315 T00171028 FZRANO


Station Type Date Time Source
KEWK Decoded METAR 2021/02/25 15:56 UTC NOAA

Newton, Newton City/County Airport, KS, United States (KEWK) 38-03N 097-17W
Feb 25, 2021 - 10:56 AM EST / 2021.02.25 1556 UTC
Wind: from the ENE (070 degrees) at 6 MPH (5 KT):0
Visibility: 10 mile(s):0
Sky conditions: overcast
Temperature: 35.1 F (1.7 C)
Dew Point: 27.0 F (-2.8 C)
Relative Humidity: 71%
Pressure (altimeter): 30.43 in. Hg (1030 hPa)
ob: KEWK 251556Z AUTO 07005KT 10SM OVC110 02/M03 A3043 RMK AO2 SLP315 T00171028 FZRANO
cycle: 16

Station Type Date Time Source
KEWK TAF UTC NOAA

Error!

Example: see airport list